sensor_id;sensor_type;location;lat;lon;timestamp;P1;durP1;ratioP1;P2;durP2;ratioP2
14992;SDS011;7592;51.088;13.732;2023-02-28T00:01:27;17.73;;;15.80;;
14992;SDS011;7592;51.088;13.732;2023-02-28T00:06:20;12.00;;;10.03;;
14992;SDS011;7592;51.088;13.732;2023-02-28T00:11:13;9.20;;;5.67;;
14992;SDS011;7592;51.088;13.732;2023-02-28T00:16:08;5.43;;;3.80;;
14992;SDS011;7592;51.088;13.732;2023-02-28T00:21:02;5.23;;;3.53;;
14992;SDS011;7592;51.088;13.732;2023-02-28T00:25:54;5.67;;;3.60;;
14992;SDS011;7592;51.088;13.732;2023-02-28T00:30:46;4.73;;;3.83;;
14992;SDS011;7592;51.088;13.732;2023-02-28T00:35:39;5.77;;;4.30;;
14992;SDS011;7592;51.088;13.732;2023-02-28T00:40:33;6.00;;;3.63;;
14992;SDS011;7592;51.088;13.732;2023-02-28T00:45:25;5.80;;;4.27;;
14992;SDS011;7592;51.088;13.732;2023-02-28T00:50:17;5.80;;;4.83;;
14992;SDS011;7592;51.088;13.732;2023-02-28T00:55:11;6.93;;;4.03;;
14992;SDS011;7592;51.088;13.732;2023-02-28T01:00:03;8.77;;;4.43;;
14992;SDS011;7592;51.088;13.732;2023-02-28T01:04:56;8.03;;;4.43;;
14992;SDS011;7592;51.088;13.732;2023-02-28T01:09:48;8.40;;;4.33;;
14992;SDS011;7592;51.088;13.732;2023-02-28T01:14:40;7.53;;;4.73;;
14992;SDS011;7592;51.088;13.732;2023-02-28T01:19:33;4.83;;;4.40;;
14992;SDS011;7592;51.088;13.732;2023-02-28T01:24:26;6.40;;;4.20;;
14992;SDS011;7592;51.088;13.732;2023-02-28T01:29:18;6.07;;;4.07;;
14992;SDS011;7592;51.088;13.732;2023-02-28T01:34:10;5.13;;;4.03;;
14992;SDS011;7592;51.088;13.732;2023-02-28T01:39:03;5.33;;;4.10;;
14992;SDS011;7592;51.088;13.732;2023-02-28T01:43:58;6.10;;;4.57;;
14992;SDS011;7592;51.088;13.732;2023-02-28T01:49:11;7.00;;;5.10;;
14992;SDS011;7592;51.088;13.732;2023-02-28T01:54:11;5.93;;;4.47;;
14992;SDS011;7592;51.088;13.732;2023-02-28T01:59:05;5.70;;;4.33;;
14992;SDS011;7592;51.088;13.732;2023-02-28T02:03:58;7.40;;;4.57;;
14992;SDS011;7592;51.088;13.732;2023-02-28T02:25:14;7.77;;;4.53;;
14992;SDS011;7592;51.088;13.732;2023-02-28T02:35:35;5.00;;;4.30;;
14992;SDS011;7592;51.088;13.732;2023-02-28T02:40:51;7.53;;;4.80;;
14992;SDS011;7592;51.088;13.732;2023-02-28T02:46:17;7.87;;;5.00;;
14992;SDS011;7592;51.088;13.732;2023-02-28T02:51:14;6.47;;;5.13;;
14992;SDS011;7592;51.088;13.732;2023-02-28T02:56:09;8.80;;;4.97;;
14992;SDS011;7592;51.088;13.732;2023-02-28T03:01:04;6.87;;;5.03;;
14992;SDS011;7592;51.088;13.732;2023-02-28T03:05:57;5.23;;;4.50;;
14992;SDS011;7592;51.088;13.732;2023-02-28T03:10:51;7.93;;;6.10;;
14992;SDS011;7592;51.088;13.732;2023-02-28T03:21:14;8.27;;;5.50;;
14992;SDS011;7592;51.088;13.732;2023-02-28T03:26:20;7.03;;;5.73;;
14992;SDS011;7592;51.088;13.732;2023-02-28T03:31:16;7.50;;;5.83;;
14992;SDS011;7592;51.088;13.732;2023-02-28T03:36:13;7.20;;;5.27;;
14992;SDS011;7592;51.088;13.732;2023-02-28T03:41:17;8.80;;;6.30;;
14992;SDS011;7592;51.088;13.732;2023-02-28T03:46:14;7.53;;;5.60;;
14992;SDS011;7592;51.088;13.732;2023-02-28T03:51:14;8.87;;;5.63;;
14992;SDS011;7592;51.088;13.732;2023-02-28T03:56:15;8.73;;;7.47;;
14992;SDS011;7592;51.088;13.732;2023-02-28T04:01:18;8.73;;;6.87;;
14992;SDS011;7592;51.088;13.732;2023-02-28T04:06:33;12.30;;;8.27;;
14992;SDS011;7592;51.088;13.732;2023-02-28T04:16:29;13.27;;;7.87;;
14992;SDS011;7592;51.088;13.732;2023-02-28T04:21:25;11.07;;;8.53;;
14992;SDS011;7592;51.088;13.732;2023-02-28T04:26:18;11.67;;;8.03;;
14992;SDS011;7592;51.088;13.732;2023-02-28T04:31:10;11.13;;;8.03;;
14992;SDS011;7592;51.088;13.732;2023-02-28T04:36:03;9.23;;;7.43;;
14992;SDS011;7592;51.088;13.732;2023-02-28T04:40:57;12.80;;;8.43;;
14992;SDS011;7592;51.088;13.732;2023-02-28T04:45:50;14.60;;;9.43;;
14992;SDS011;7592;51.088;13.732;2023-02-28T04:50:42;17.97;;;10.80;;
14992;SDS011;7592;51.088;13.732;2023-02-28T04:55:35;18.80;;;12.43;;
14992;SDS011;7592;51.088;13.732;2023-02-28T05:00:28;20.00;;;12.57;;
14992;SDS011;7592;51.088;13.732;2023-02-28T05:05:20;13.70;;;8.97;;
14992;SDS011;7592;51.088;13.732;2023-02-28T05:10:13;15.13;;;10.50;;
14992;SDS011;7592;51.088;13.732;2023-02-28T05:15:05;18.13;;;9.63;;
14992;SDS011;7592;51.088;13.732;2023-02-28T05:19:59;15.87;;;10.30;;
14992;SDS011;7592;51.088;13.732;2023-02-28T05:25:05;15.13;;;9.50;;
14992;SDS011;7592;51.088;13.732;2023-02-28T05:29:58;23.57;;;13.10;;
14992;SDS011;7592;51.088;13.732;2023-02-28T05:34:50;16.03;;;10.27;;
14992;SDS011;7592;51.088;13.732;2023-02-28T05:39:42;14.27;;;10.40;;
14992;SDS011;7592;51.088;13.732;2023-02-28T05:44:34;15.40;;;10.13;;
14992;SDS011;7592;51.088;13.732;2023-02-28T05:49:27;14.87;;;10.17;;
14992;SDS011;7592;51.088;13.732;2023-02-28T05:54:19;16.27;;;10.60;;
14992;SDS011;7592;51.088;13.732;2023-02-28T05:59:12;14.30;;;10.10;;
14992;SDS011;7592;51.088;13.732;2023-02-28T06:04:05;16.00;;;11.77;;
14992;SDS011;7592;51.088;13.732;2023-02-28T06:09:06;18.80;;;13.10;;
14992;SDS011;7592;51.088;13.732;2023-02-28T06:13:59;14.77;;;10.43;;
14992;SDS011;7592;51.088;13.732;2023-02-28T06:18:52;18.47;;;12.43;;
14992;SDS011;7592;51.088;13.732;2023-02-28T06:23:47;17.03;;;11.53;;
14992;SDS011;7592;51.088;13.732;2023-02-28T06:28:39;18.30;;;13.07;;
14992;SDS011;7592;51.088;13.732;2023-02-28T06:33:31;15.97;;;10.57;;
14992;SDS011;7592;51.088;13.732;2023-02-28T06:38:24;38.53;;;19.77;;
14992;SDS011;7592;51.088;13.732;2023-02-28T06:43:16;33.37;;;19.57;;
14992;SDS011;7592;51.088;13.732;2023-02-28T06:48:08;13.67;;;10.03;;
14992;SDS011;7592;51.088;13.732;2023-02-28T06:53:01;15.60;;;10.33;;
14992;SDS011;7592;51.088;13.732;2023-02-28T06:57:54;12.63;;;9.03;;
14992;SDS011;7592;51.088;13.732;2023-02-28T07:02:46;17.33;;;9.87;;
14992;SDS011;7592;51.088;13.732;2023-02-28T07:07:39;15.57;;;11.43;;
14992;SDS011;7592;51.088;13.732;2023-02-28T07:12:36;12.87;;;9.07;;
14992;SDS011;7592;51.088;13.732;2023-02-28T07:17:28;12.10;;;8.20;;
14992;SDS011;7592;51.088;13.732;2023-02-28T07:22:21;10.47;;;7.50;;
14992;SDS011;7592;51.088;13.732;2023-02-28T07:27:13;12.60;;;8.57;;
14992;SDS011;7592;51.088;13.732;2023-02-28T07:32:15;10.70;;;7.50;;
14992;SDS011;7592;51.088;13.732;2023-02-28T07:37:07;9.40;;;7.30;;
14992;SDS011;7592;51.088;13.732;2023-02-28T07:41:59;11.63;;;7.90;;
14992;SDS011;7592;51.088;13.732;2023-02-28T07:46:57;12.90;;;7.90;;
14992;SDS011;7592;51.088;13.732;2023-02-28T07:51:49;11.07;;;7.50;;
14992;SDS011;7592;51.088;13.732;2023-02-28T07:56:41;11.87;;;8.00;;
14992;SDS011;7592;51.088;13.732;2023-02-28T08:01:35;11.10;;;7.70;;
14992;SDS011;7592;51.088;13.732;2023-02-28T08:06:27;13.70;;;7.73;;
14992;SDS011;7592;51.088;13.732;2023-02-28T08:11:19;14.40;;;8.13;;
14992;SDS011;7592;51.088;13.732;2023-02-28T08:16:11;11.03;;;7.67;;
14992;SDS011;7592;51.088;13.732;2023-02-28T08:21:12;11.63;;;8.23;;
14992;SDS011;7592;51.088;13.732;2023-02-28T08:26:04;11.17;;;7.87;;
14992;SDS011;7592;51.088;13.732;2023-02-28T08:30:57;15.03;;;8.77;;
14992;SDS011;7592;51.088;13.732;2023-02-28T08:35:53;13.57;;;8.00;;
14992;SDS011;7592;51.088;13.732;2023-02-28T08:40:46;10.93;;;8.00;;
14992;SDS011;7592;51.088;13.732;2023-02-28T08:45:38;12.67;;;8.43;;
14992;SDS011;7592;51.088;13.732;2023-02-28T08:50:31;14.93;;;8.33;;
14992;SDS011;7592;51.088;13.732;2023-02-28T08:55:23;36.40;;;19.40;;
14992;SDS011;7592;51.088;13.732;2023-02-28T09:00:15;15.13;;;12.17;;
14992;SDS011;7592;51.088;13.732;2023-02-28T09:05:07;7.87;;;6.10;;
14992;SDS011;7592;51.088;13.732;2023-02-28T09:10:00;9.23;;;5.70;;
14992;SDS011;7592;51.088;13.732;2023-02-28T09:14:53;10.17;;;5.77;;
14992;SDS011;7592;51.088;13.732;2023-02-28T09:19:47;6.67;;;4.90;;
14992;SDS011;7592;51.088;13.732;2023-02-28T09:24:40;9.43;;;5.60;;
14992;SDS011;7592;51.088;13.732;2023-02-28T09:29:32;8.47;;;5.50;;
14992;SDS011;7592;51.088;13.732;2023-02-28T09:34:26;9.00;;;5.67;;
14992;SDS011;7592;51.088;13.732;2023-02-28T09:39:18;8.40;;;5.43;;
14992;SDS011;7592;51.088;13.732;2023-02-28T09:44:11;6.37;;;5.33;;
14992;SDS011;7592;51.088;13.732;2023-02-28T09:49:13;7.50;;;5.60;;
14992;SDS011;7592;51.088;13.732;2023-02-28T09:54:10;6.17;;;4.87;;
14992;SDS011;7592;51.088;13.732;2023-02-28T09:59:13;7.83;;;5.87;;
14992;SDS011;7592;51.088;13.732;2023-02-28T10:09:36;7.00;;;5.50;;
14992;SDS011;7592;51.088;13.732;2023-02-28T10:14:30;12.67;;;6.33;;
14992;SDS011;7592;51.088;13.732;2023-02-28T10:19:26;7.77;;;5.20;;
14992;SDS011;7592;51.088;13.732;2023-02-28T10:29:43;8.47;;;6.03;;
14992;SDS011;7592;51.088;13.732;2023-02-28T10:34:36;7.87;;;5.83;;
14992;SDS011;7592;51.088;13.732;2023-02-28T10:44:27;7.50;;;6.53;;
14992;SDS011;7592;51.088;13.732;2023-02-28T10:49:20;9.07;;;7.73;;
14992;SDS011;7592;51.088;13.732;2023-02-28T10:54:19;10.37;;;7.60;;
14992;SDS011;7592;51.088;13.732;2023-02-28T10:59:28;11.30;;;8.13;;
14992;SDS011;7592;51.088;13.732;2023-02-28T11:09:32;8.00;;;6.83;;
14992;SDS011;7592;51.088;13.732;2023-02-28T11:14:31;10.07;;;7.57;;
14992;SDS011;7592;51.088;13.732;2023-02-28T11:19:37;8.23;;;7.17;;
14992;SDS011;7592;51.088;13.732;2023-02-28T11:24:36;7.67;;;6.87;;
14992;SDS011;7592;51.088;13.732;2023-02-28T11:29:33;8.50;;;6.83;;
14992;SDS011;7592;51.088;13.732;2023-02-28T11:34:28;9.70;;;7.30;;
14992;SDS011;7592;51.088;13.732;2023-02-28T11:39:21;7.63;;;6.87;;
14992;SDS011;7592;51.088;13.732;2023-02-28T11:54:23;9.83;;;7.37;;
14992;SDS011;7592;51.088;13.732;2023-02-28T12:04:53;11.30;;;8.93;;
14992;SDS011;7592;51.088;13.732;2023-02-28T12:09:54;16.93;;;7.93;;
14992;SDS011;7592;51.088;13.732;2023-02-28T12:14:56;13.80;;;8.03;;
14992;SDS011;7592;51.088;13.732;2023-02-28T12:30:18;11.37;;;9.03;;
14992;SDS011;7592;51.088;13.732;2023-02-28T12:35:18;11.33;;;8.10;;
14992;SDS011;7592;51.088;13.732;2023-02-28T12:40:15;11.87;;;9.53;;
14992;SDS011;7592;51.088;13.732;2023-02-28T12:45:30;11.03;;;8.37;;
14992;SDS011;7592;51.088;13.732;2023-02-28T12:50:41;11.03;;;8.57;;
14992;SDS011;7592;51.088;13.732;2023-02-28T13:11:33;11.87;;;9.10;;
14992;SDS011;7592;51.088;13.732;2023-02-28T13:16:54;12.13;;;9.50;;
14992;SDS011;7592;51.088;13.732;2023-02-28T13:21:46;14.37;;;9.07;;
14992;SDS011;7592;51.088;13.732;2023-02-28T13:31:41;13.63;;;9.37;;
14992;SDS011;7592;51.088;13.732;2023-02-28T13:47:22;13.47;;;9.93;;
14992;SDS011;7592;51.088;13.732;2023-02-28T13:52:20;13.80;;;9.70;;
14992;SDS011;7592;51.088;13.732;2023-02-28T14:02:56;13.63;;;10.57;;
14992;SDS011;7592;51.088;13.732;2023-02-28T14:07:49;14.83;;;10.77;;
14992;SDS011;7592;51.088;13.732;2023-02-28T14:17:53;13.57;;;10.23;;
14992;SDS011;7592;51.088;13.732;2023-02-28T14:38:14;16.93;;;10.73;;
14992;SDS011;7592;51.088;13.732;2023-02-28T14:43:25;11.37;;;9.33;;
14992;SDS011;7592;51.088;13.732;2023-02-28T14:48:19;12.97;;;9.93;;
14992;SDS011;7592;51.088;13.732;2023-02-28T14:53:15;11.17;;;9.17;;
14992;SDS011;7592;51.088;13.732;2023-02-28T14:58:27;14.73;;;10.17;;
14992;SDS011;7592;51.088;13.732;2023-02-28T15:03:27;14.83;;;9.70;;
14992;SDS011;7592;51.088;13.732;2023-02-28T15:08:23;14.07;;;10.60;;
14992;SDS011;7592;51.088;13.732;2023-02-28T15:13:16;14.07;;;10.13;;
14992;SDS011;7592;51.088;13.732;2023-02-28T15:18:12;16.67;;;9.87;;
14992;SDS011;7592;51.088;13.732;2023-02-28T15:23:25;19.10;;;11.83;;
14992;SDS011;7592;51.088;13.732;2023-02-28T15:28:18;14.00;;;9.97;;
14992;SDS011;7592;51.088;13.732;2023-02-28T15:38:24;13.77;;;10.97;;
14992;SDS011;7592;51.088;13.732;2023-02-28T15:43:28;13.63;;;10.23;;
14992;SDS011;7592;51.088;13.732;2023-02-28T15:48:25;13.10;;;10.47;;
14992;SDS011;7592;51.088;13.732;2023-02-28T15:53:22;16.03;;;10.90;;
14992;SDS011;7592;51.088;13.732;2023-02-28T15:58:16;14.33;;;10.53;;
14992;SDS011;7592;51.088;13.732;2023-02-28T16:03:23;14.93;;;11.03;;
14992;SDS011;7592;51.088;13.732;2023-02-28T16:08:19;13.97;;;10.53;;
14992;SDS011;7592;51.088;13.732;2023-02-28T16:13:11;11.53;;;10.33;;
14992;SDS011;7592;51.088;13.732;2023-02-28T16:18:07;17.30;;;13.10;;
14992;SDS011;7592;51.088;13.732;2023-02-28T16:23:02;33.33;;;23.30;;
14992;SDS011;7592;51.088;13.732;2023-02-28T16:27:54;23.27;;;15.90;;
14992;SDS011;7592;51.088;13.732;2023-02-28T16:32:49;15.77;;;11.77;;
14992;SDS011;7592;51.088;13.732;2023-02-28T16:37:41;15.30;;;10.90;;
14992;SDS011;7592;51.088;13.732;2023-02-28T16:42:33;16.47;;;11.07;;
14992;SDS011;7592;51.088;13.732;2023-02-28T16:47:25;16.73;;;10.83;;
14992;SDS011;7592;51.088;13.732;2023-02-28T16:52:18;18.00;;;12.90;;
14992;SDS011;7592;51.088;13.732;2023-02-28T16:57:16;18.03;;;12.27;;
14992;SDS011;7592;51.088;13.732;2023-02-28T17:02:12;18.57;;;13.30;;
14992;SDS011;7592;51.088;13.732;2023-02-28T17:07:10;18.33;;;13.13;;
14992;SDS011;7592;51.088;13.732;2023-02-28T17:12:05;17.43;;;12.37;;
14992;SDS011;7592;51.088;13.732;2023-02-28T17:16:57;48.10;;;37.90;;
14992;SDS011;7592;51.088;13.732;2023-02-28T17:21:52;76.90;;;46.03;;
14992;SDS011;7592;51.088;13.732;2023-02-28T17:26:44;100.60;;;59.87;;
14992;SDS011;7592;51.088;13.732;2023-02-28T17:31:36;39.17;;;25.13;;
14992;SDS011;7592;51.088;13.732;2023-02-28T17:36:31;98.37;;;43.73;;
14992;SDS011;7592;51.088;13.732;2023-02-28T17:41:25;96.90;;;44.90;;
14992;SDS011;7592;51.088;13.732;2023-02-28T17:46:19;68.57;;;35.60;;
14992;SDS011;7592;51.088;13.732;2023-02-28T17:51:13;29.07;;;16.37;;
14992;SDS011;7592;51.088;13.732;2023-02-28T17:56:08;24.10;;;15.70;;
14992;SDS011;7592;51.088;13.732;2023-02-28T18:01:04;19.77;;;13.63;;
14992;SDS011;7592;51.088;13.732;2023-02-28T18:05:57;22.17;;;16.43;;
14992;SDS011;7592;51.088;13.732;2023-02-28T18:10:49;18.97;;;12.83;;
14992;SDS011;7592;51.088;13.732;2023-02-28T18:15:42;28.90;;;17.33;;
14992;SDS011;7592;51.088;13.732;2023-02-28T18:20:34;46.00;;;26.00;;
14992;SDS011;7592;51.088;13.732;2023-02-28T18:25:27;24.93;;;16.50;;
14992;SDS011;7592;51.088;13.732;2023-02-28T18:30:20;25.03;;;17.67;;
14992;SDS011;7592;51.088;13.732;2023-02-28T18:35:12;20.13;;;14.93;;
14992;SDS011;7592;51.088;13.732;2023-02-28T18:40:04;18.13;;;13.87;;
14992;SDS011;7592;51.088;13.732;2023-02-28T18:44:57;17.93;;;12.00;;
14992;SDS011;7592;51.088;13.732;2023-02-28T18:49:49;16.83;;;12.23;;
14992;SDS011;7592;51.088;13.732;2023-02-28T18:54:41;23.87;;;16.70;;
14992;SDS011;7592;51.088;13.732;2023-02-28T18:59:33;21.50;;;14.47;;
14992;SDS011;7592;51.088;13.732;2023-02-28T19:04:25;20.40;;;14.60;;
14992;SDS011;7592;51.088;13.732;2023-02-28T19:09:17;21.10;;;13.90;;
14992;SDS011;7592;51.088;13.732;2023-02-28T19:14:09;21.57;;;14.67;;
14992;SDS011;7592;51.088;13.732;2023-02-28T19:19:01;21.20;;;15.47;;
14992;SDS011;7592;51.088;13.732;2023-02-28T19:23:53;20.97;;;15.00;;
14992;SDS011;7592;51.088;13.732;2023-02-28T19:28:45;24.97;;;17.33;;
14992;SDS011;7592;51.088;13.732;2023-02-28T19:33:38;25.60;;;16.80;;
14992;SDS011;7592;51.088;13.732;2023-02-28T19:38:30;25.10;;;17.00;;
14992;SDS011;7592;51.088;13.732;2023-02-28T19:43:22;25.57;;;17.80;;
14992;SDS011;7592;51.088;13.732;2023-02-28T19:48:14;25.77;;;17.80;;
14992;SDS011;7592;51.088;13.732;2023-02-28T19:53:06;32.27;;;22.23;;
14992;SDS011;7592;51.088;13.732;2023-02-28T19:57:59;31.13;;;20.10;;
14992;SDS011;7592;51.088;13.732;2023-02-28T20:02:51;32.67;;;21.13;;
14992;SDS011;7592;51.088;13.732;2023-02-28T20:07:43;29.97;;;20.27;;
14992;SDS011;7592;51.088;13.732;2023-02-28T20:12:35;28.20;;;20.50;;
14992;SDS011;7592;51.088;13.732;2023-02-28T20:17:27;30.27;;;21.67;;
14992;SDS011;7592;51.088;13.732;2023-02-28T20:22:20;31.07;;;21.43;;
14992;SDS011;7592;51.088;13.732;2023-02-28T20:27:12;42.87;;;26.50;;
14992;SDS011;7592;51.088;13.732;2023-02-28T20:32:05;50.00;;;32.03;;
14992;SDS011;7592;51.088;13.732;2023-02-28T20:36:58;81.77;;;47.53;;
14992;SDS011;7592;51.088;13.732;2023-02-28T20:41:51;37.10;;;24.40;;
14992;SDS011;7592;51.088;13.732;2023-02-28T20:46:43;30.93;;;18.80;;
14992;SDS011;7592;51.088;13.732;2023-02-28T20:51:35;37.83;;;23.57;;
14992;SDS011;7592;51.088;13.732;2023-02-28T20:56:30;49.53;;;32.40;;
14992;SDS011;7592;51.088;13.732;2023-02-28T21:01:23;35.83;;;25.50;;
14992;SDS011;7592;51.088;13.732;2023-02-28T21:06:17;34.03;;;22.63;;
14992;SDS011;7592;51.088;13.732;2023-02-28T21:11:12;32.97;;;20.73;;
14992;SDS011;7592;51.088;13.732;2023-02-28T21:16:09;34.17;;;23.57;;
14992;SDS011;7592;51.088;13.732;2023-02-28T21:21:03;35.97;;;24.20;;
14992;SDS011;7592;51.088;13.732;2023-02-28T21:26:04;44.00;;;27.93;;
14992;SDS011;7592;51.088;13.732;2023-02-28T21:31:01;37.43;;;24.00;;
14992;SDS011;7592;51.088;13.732;2023-02-28T21:36:15;31.07;;;21.90;;
14992;SDS011;7592;51.088;13.732;2023-02-28T21:41:09;39.03;;;24.37;;
14992;SDS011;7592;51.088;13.732;2023-02-28T21:46:04;37.00;;;24.83;;
14992;SDS011;7592;51.088;13.732;2023-02-28T21:51:02;31.53;;;21.00;;
14992;SDS011;7592;51.088;13.732;2023-02-28T21:56:03;28.90;;;18.23;;
14992;SDS011;7592;51.088;13.732;2023-02-28T22:01:06;27.87;;;19.23;;
14992;SDS011;7592;51.088;13.732;2023-02-28T22:11:15;27.53;;;20.03;;
14992;SDS011;7592;51.088;13.732;2023-02-28T22:16:09;28.33;;;19.67;;
14992;SDS011;7592;51.088;13.732;2023-02-28T22:21:03;28.70;;;20.10;;
14992;SDS011;7592;51.088;13.732;2023-02-28T22:25:56;27.20;;;19.13;;
14992;SDS011;7592;51.088;13.732;2023-02-28T22:30:50;29.17;;;20.67;;
14992;SDS011;7592;51.088;13.732;2023-02-28T22:35:42;29.07;;;19.70;;
14992;SDS011;7592;51.088;13.732;2023-02-28T22:40:35;41.73;;;22.97;;
14992;SDS011;7592;51.088;13.732;2023-02-28T22:45:28;31.33;;;20.53;;
14992;SDS011;7592;51.088;13.732;2023-02-28T22:50:20;30.37;;;21.23;;
14992;SDS011;7592;51.088;13.732;2023-02-28T22:55:12;30.13;;;19.33;;
14992;SDS011;7592;51.088;13.732;2023-02-28T23:00:05;34.17;;;23.13;;
14992;SDS011;7592;51.088;13.732;2023-02-28T23:05:00;116.23;;;54.67;;
14992;SDS011;7592;51.088;13.732;2023-02-28T23:09:54;132.60;;;62.97;;
14992;SDS011;7592;51.088;13.732;2023-02-28T23:14:46;52.60;;;30.90;;
14992;SDS011;7592;51.088;13.732;2023-02-28T23:19:38;44.40;;;27.57;;
14992;SDS011;7592;51.088;13.732;2023-02-28T23:24:31;41.27;;;25.30;;
14992;SDS011;7592;51.088;13.732;2023-02-28T23:29:24;39.53;;;25.83;;
14992;SDS011;7592;51.088;13.732;2023-02-28T23:34:18;40.67;;;25.33;;
14992;SDS011;7592;51.088;13.732;2023-02-28T23:39:17;36.40;;;23.80;;
14992;SDS011;7592;51.088;13.732;2023-02-28T23:44:10;37.57;;;24.23;;
14992;SDS011;7592;51.088;13.732;2023-02-28T23:49:04;40.53;;;25.57;;
14992;SDS011;7592;51.088;13.732;2023-02-28T23:53:56;44.17;;;27.13;;
14992;SDS011;7592;51.088;13.732;2023-02-28T23:58:48;40.13;;;24.00;;
